sensor_id;sensor_type;location;lat;lon;timestamp;pressure;altitude;pressure_sealevel;temperature;humidity
55289;BME280;41154;45.394;5.734;2023-01-28T00:01:55;97033.59;;;-0.29;100.00
55289;BME280;41154;45.394;5.734;2023-01-28T00:04:21;97038.91;;;-0.14;100.00
55289;BME280;41154;45.394;5.734;2023-01-28T00:06:46;97037.81;;;-0.05;100.00
55289;BME280;41154;45.394;5.734;2023-01-28T00:09:12;97049.44;;;0.01;100.00
55289;BME280;41154;45.394;5.734;2023-01-28T00:11:38;97034.53;;;-0.07;100.00
55289;BME280;41154;45.394;5.734;2023-01-28T00:14:04;97037.06;;;0.02;100.00
55289;BME280;41154;45.394;5.734;2023-01-28T00:16:29;97044.22;;;-0.22;100.00
55289;BME280;41154;45.394;5.734;2023-01-28T00:18:55;97036.88;;;-0.12;100.00
55289;BME280;41154;45.394;5.734;2023-01-28T00:21:21;97041.41;;;-0.21;100.00
55289;BME280;41154;45.394;5.734;2023-01-28T00:23:51;97032.06;;;-0.08;100.00
55289;BME280;41154;45.394;5.734;2023-01-28T00:26:17;97031.25;;;-0.09;100.00
55289;BME280;41154;45.394;5.734;2023-01-28T00:28:44;97027.88;;;-0.03;100.00
55289;BME280;41154;45.394;5.734;2023-01-28T00:31:22;97029.88;;;-0.20;100.00
55289;BME280;41154;45.394;5.734;2023-01-28T00:33:50;97030.22;;;-0.52;100.00
55289;BME280;41154;45.394;5.734;2023-01-28T00:36:17;97027.84;;;-0.62;100.00
55289;BME280;41154;45.394;5.734;2023-01-28T00:38:49;97031.47;;;-0.48;100.00
55289;BME280;41154;45.394;5.734;2023-01-28T00:41:17;97030.41;;;-0.39;100.00
55289;BME280;41154;45.394;5.734;2023-01-28T00:43:43;97021.34;;;-0.22;100.00
55289;BME280;41154;45.394;5.734;2023-01-28T00:46:10;97020.81;;;-0.17;100.00
55289;BME280;41154;45.394;5.734;2023-01-28T00:48:37;97022.25;;;-0.14;100.00
55289;BME280;41154;45.394;5.734;2023-01-28T00:51:05;97028.34;;;-0.14;100.00
55289;BME280;41154;45.394;5.734;2023-01-28T00:53:31;97023.25;;;-0.30;100.00
55289;BME280;41154;45.394;5.734;2023-01-28T00:55:57;97032.34;;;-0.18;100.00
55289;BME280;41154;45.394;5.734;2023-01-28T00:58:22;97022.59;;;-0.17;100.00
55289;BME280;41154;45.394;5.734;2023-01-28T01:00:49;97016.44;;;-0.10;100.00
55289;BME280;41154;45.394;5.734;2023-01-28T01:03:16;97025.88;;;-0.30;100.00
55289;BME280;41154;45.394;5.734;2023-01-28T01:05:42;97025.75;;;-0.52;100.00
55289;BME280;41154;45.394;5.734;2023-01-28T01:08:08;97031.91;;;-0.60;100.00
55289;BME280;41154;45.394;5.734;2023-01-28T01:10:34;97023.19;;;-0.60;100.00
55289;BME280;41154;45.394;5.734;2023-01-28T01:12:59;97028.81;;;-0.63;100.00
55289;BME280;41154;45.394;5.734;2023-01-28T01:15:25;97032.31;;;-0.48;100.00
55289;BME280;41154;45.394;5.734;2023-01-28T01:17:51;97030.78;;;-0.27;100.00
55289;BME280;41154;45.394;5.734;2023-01-28T01:20:20;97028.75;;;-0.55;100.00
55289;BME280;41154;45.394;5.734;2023-01-28T01:22:46;97031.41;;;-0.40;100.00
55289;BME280;41154;45.394;5.734;2023-01-28T01:25:14;97040.38;;;-0.49;100.00
55289;BME280;41154;45.394;5.734;2023-01-28T01:27:41;97036.50;;;-0.39;100.00
55289;BME280;41154;45.394;5.734;2023-01-28T01:30:08;97040.53;;;-0.28;100.00
55289;BME280;41154;45.394;5.734;2023-01-28T01:32:34;97026.78;;;-0.38;100.00
55289;BME280;41154;45.394;5.734;2023-01-28T01:35:02;97031.47;;;-0.48;100.00
55289;BME280;41154;45.394;5.734;2023-01-28T01:37:30;97040.03;;;-0.31;100.00
55289;BME280;41154;45.394;5.734;2023-01-28T01:39:55;97041.56;;;-0.52;100.00
55289;BME280;41154;45.394;5.734;2023-01-28T01:42:23;97042.00;;;-0.48;100.00
55289;BME280;41154;45.394;5.734;2023-01-28T01:45:02;97035.06;;;-0.64;100.00
55289;BME280;41154;45.394;5.734;2023-01-28T01:47:42;97028.41;;;-0.75;100.00
55289;BME280;41154;45.394;5.734;2023-01-28T01:50:21;97039.59;;;-0.35;100.00
55289;BME280;41154;45.394;5.734;2023-01-28T01:52:49;97032.25;;;-0.25;100.00
55289;BME280;41154;45.394;5.734;2023-01-28T01:55:18;97044.69;;;-0.33;100.00
55289;BME280;41154;45.394;5.734;2023-01-28T01:57:49;97041.41;;;-0.35;100.00
55289;BME280;41154;45.394;5.734;2023-01-28T02:00:17;97034.72;;;-0.61;100.00
55289;BME280;41154;45.394;5.734;2023-01-28T02:02:48;97037.88;;;-0.66;100.00
55289;BME280;41154;45.394;5.734;2023-01-28T02:05:18;97036.84;;;-0.80;100.00
55289;BME280;41154;45.394;5.734;2023-01-28T02:07:46;97035.94;;;-0.49;100.00
55289;BME280;41154;45.394;5.734;2023-01-28T02:10:13;97039.34;;;-0.63;100.00
55289;BME280;41154;45.394;5.734;2023-01-28T02:12:42;97035.97;;;-0.72;100.00
55289;BME280;41154;45.394;5.734;2023-01-28T02:15:13;97036.91;;;-0.65;100.00
55289;BME280;41154;45.394;5.734;2023-01-28T02:17:41;97036.28;;;-0.52;100.00
55289;BME280;41154;45.394;5.734;2023-01-28T02:20:10;97034.28;;;-0.50;100.00
55289;BME280;41154;45.394;5.734;2023-01-28T02:30:26;97031.47;;;-0.63;100.00
55289;BME280;41154;45.394;5.734;2023-01-28T02:32:58;97039.47;;;-0.57;100.00
55289;BME280;41154;45.394;5.734;2023-01-28T02:35:36;97044.00;;;-0.50;100.00
55289;BME280;41154;45.394;5.734;2023-01-28T02:38:13;97035.13;;;-0.34;100.00
55289;BME280;41154;45.394;5.734;2023-01-28T02:40:43;97038.59;;;-0.34;100.00
55289;BME280;41154;45.394;5.734;2023-01-28T02:43:33;97040.94;;;-0.39;100.00
55289;BME280;41154;45.394;5.734;2023-01-28T02:46:50;97039.63;;;-0.73;100.00
55289;BME280;41154;45.394;5.734;2023-01-28T02:49:10;97041.13;;;-0.41;100.00
55289;BME280;41154;45.394;5.734;2023-01-28T02:52:06;97035.66;;;-0.39;100.00
55289;BME280;41154;45.394;5.734;2023-01-28T02:57:50;97042.28;;;-0.58;100.00
55289;BME280;41154;45.394;5.734;2023-01-28T03:00:37;97040.53;;;-0.66;100.00
55289;BME280;41154;45.394;5.734;2023-01-28T03:03:16;97048.19;;;-0.56;100.00
55289;BME280;41154;45.394;5.734;2023-01-28T03:05:55;97043.81;;;-0.64;100.00
55289;BME280;41154;45.394;5.734;2023-01-28T03:08:50;97039.19;;;-0.62;100.00
55289;BME280;41154;45.394;5.734;2023-01-28T03:11:40;97035.16;;;-0.73;100.00
55289;BME280;41154;45.394;5.734;2023-01-28T03:14:25;97036.03;;;-0.80;100.00
55289;BME280;41154;45.394;5.734;2023-01-28T03:17:17;97031.72;;;-0.58;100.00
55289;BME280;41154;45.394;5.734;2023-01-28T03:20:04;97044.00;;;-0.50;100.00
55289;BME280;41154;45.394;5.734;2023-01-28T03:22:52;97045.56;;;-0.56;100.00
55289;BME280;41154;45.394;5.734;2023-01-28T03:25:40;97039.38;;;-0.48;100.00
55289;BME280;41154;45.394;5.734;2023-01-28T03:28:28;97046.56;;;-0.80;100.00
55289;BME280;41154;45.394;5.734;2023-01-28T03:31:17;97048.41;;;-0.81;100.00
55289;BME280;41154;45.394;5.734;2023-01-28T03:34:04;97048.75;;;-0.84;100.00
55289;BME280;41154;45.394;5.734;2023-01-28T03:36:49;97042.13;;;-0.80;100.00
55289;BME280;41154;45.394;5.734;2023-01-28T03:39:36;97048.34;;;-0.96;100.00
55289;BME280;41154;45.394;5.734;2023-01-28T03:44:29;97042.28;;;-0.58;100.00
55289;BME280;41154;45.394;5.734;2023-01-28T03:47:14;97049.31;;;-0.74;100.00
55289;BME280;41154;45.394;5.734;2023-01-28T03:49:44;97046.47;;;-0.49;100.00
55289;BME280;41154;45.394;5.734;2023-01-28T03:52:11;97052.84;;;-0.43;100.00
55289;BME280;41154;45.394;5.734;2023-01-28T03:54:37;97037.94;;;-0.36;100.00
55289;BME280;41154;45.394;5.734;2023-01-28T03:57:03;97044.91;;;-0.58;100.00
55289;BME280;41154;45.394;5.734;2023-01-28T03:59:31;97047.22;;;-0.40;100.00
55289;BME280;41154;45.394;5.734;2023-01-28T04:01:58;97038.13;;;-0.52;100.00
55289;BME280;41154;45.394;5.734;2023-01-28T04:04:29;97045.41;;;-0.40;100.00
55289;BME280;41154;45.394;5.734;2023-01-28T04:06:57;97054.19;;;-0.47;100.00
55289;BME280;41154;45.394;5.734;2023-01-28T04:09:23;97055.00;;;-0.47;100.00
55289;BME280;41154;45.394;5.734;2023-01-28T04:12:12;97070.72;;;-0.77;100.00
55289;BME280;41154;45.394;5.734;2023-01-28T04:14:45;97053.84;;;-0.82;100.00
55289;BME280;41154;45.394;5.734;2023-01-28T04:17:22;97064.91;;;-0.64;100.00
55289;BME280;41154;45.394;5.734;2023-01-28T04:19:49;97063.53;;;-0.83;100.00
55289;BME280;41154;45.394;5.734;2023-01-28T04:22:15;97059.50;;;-0.94;100.00
55289;BME280;41154;45.394;5.734;2023-01-28T04:24:41;97058.00;;;-0.88;100.00
55289;BME280;41154;45.394;5.734;2023-01-28T04:27:07;97052.09;;;-0.90;100.00
55289;BME280;41154;45.394;5.734;2023-01-28T04:29:33;97055.28;;;-0.80;100.00
55289;BME280;41154;45.394;5.734;2023-01-28T04:32:17;97050.56;;;-0.46;100.00
55289;BME280;41154;45.394;5.734;2023-01-28T04:35:01;97052.47;;;-0.78;100.00
55289;BME280;41154;45.394;5.734;2023-01-28T04:37:53;97059.53;;;-0.56;100.00
55289;BME280;41154;45.394;5.734;2023-01-28T04:40:48;97062.84;;;-0.77;100.00
55289;BME280;41154;45.394;5.734;2023-01-28T04:43:23;97067.53;;;-0.87;100.00
55289;BME280;41154;45.394;5.734;2023-01-28T04:45:52;97066.75;;;-0.73;100.00
55289;BME280;41154;45.394;5.734;2023-01-28T04:48:24;97063.53;;;-0.83;100.00
55289;BME280;41154;45.394;5.734;2023-01-28T04:51:04;97067.00;;;-0.82;100.00
55289;BME280;41154;45.394;5.734;2023-01-28T04:53:36;97060.97;;;-0.68;100.00
55289;BME280;41154;45.394;5.734;2023-01-28T04:56:06;97063.06;;;-0.86;100.00
55289;BME280;41154;45.394;5.734;2023-01-28T04:58:34;97062.38;;;-1.03;100.00
55289;BME280;41154;45.394;5.734;2023-01-28T05:01:04;97061.94;;;-0.92;100.00
55289;BME280;41154;45.394;5.734;2023-01-28T05:03:30;97053.50;;;-0.64;100.00
55289;BME280;41154;45.394;5.734;2023-01-28T05:05:56;97044.63;;;-0.63;100.00
55289;BME280;41154;45.394;5.734;2023-01-28T05:08:35;97056.13;;;-0.79;100.00
55289;BME280;41154;45.394;5.734;2023-01-28T05:11:01;97055.53;;;-0.89;100.00
55289;BME280;41154;45.394;5.734;2023-01-28T05:13:27;97061.50;;;-0.73;100.00
55289;BME280;41154;45.394;5.734;2023-01-28T05:15:53;97059.44;;;-0.62;100.00
55289;BME280;41154;45.394;5.734;2023-01-28T05:18:19;97055.75;;;-0.53;100.00
55289;BME280;41154;45.394;5.734;2023-01-28T05:20:57;97059.97;;;-0.67;100.00
55289;BME280;41154;45.394;5.734;2023-01-28T05:23:23;97064.66;;;-1.00;100.00
55289;BME280;41154;45.394;5.734;2023-01-28T05:25:52;97069.47;;;-1.04;100.00
55289;BME280;41154;45.394;5.734;2023-01-28T05:28:19;97068.00;;;-0.83;100.00
55289;BME280;41154;45.394;5.734;2023-01-28T05:30:46;97078.09;;;-0.72;100.00
55289;BME280;41154;45.394;5.734;2023-01-28T05:33:12;97071.75;;;-0.78;100.00
55289;BME280;41154;45.394;5.734;2023-01-28T05:35:37;97078.63;;;-0.77;100.00
55289;BME280;41154;45.394;5.734;2023-01-28T05:38:04;97083.97;;;-0.62;100.00
55289;BME280;41154;45.394;5.734;2023-01-28T05:40:30;97081.09;;;-0.75;100.00
55289;BME280;41154;45.394;5.734;2023-01-28T05:42:56;97076.81;;;-0.53;100.00
55289;BME280;41154;45.394;5.734;2023-01-28T05:45:32;97073.19;;;-0.52;100.00
55289;BME280;41154;45.394;5.734;2023-01-28T05:48:13;97073.59;;;-0.63;100.00
55289;BME280;41154;45.394;5.734;2023-01-28T05:50:57;97076.75;;;-0.68;100.00
55289;BME280;41154;45.394;5.734;2023-01-28T05:53:32;97076.34;;;-0.80;100.00
55289;BME280;41154;45.394;5.734;2023-01-28T05:55:58;97081.06;;;-0.67;100.00
55289;BME280;41154;45.394;5.734;2023-01-28T05:58:24;97088.53;;;-0.79;100.00
55289;BME280;41154;45.394;5.734;2023-01-28T06:00:54;97088.78;;;-0.65;100.00
55289;BME280;41154;45.394;5.734;2023-01-28T06:03:24;97084.31;;;-0.65;100.00
55289;BME280;41154;45.394;5.734;2023-01-28T06:05:50;97094.41;;;-0.68;100.00
55289;BME280;41154;45.394;5.734;2023-01-28T06:08:16;97096.16;;;-0.84;100.00
55289;BME280;41154;45.394;5.734;2023-01-28T06:10:41;97095.09;;;-0.75;100.00
55289;BME280;41154;45.394;5.734;2023-01-28T06:13:07;97097.13;;;-0.62;100.00
55289;BME280;41154;45.394;5.734;2023-01-28T06:15:53;97095.13;;;-0.60;100.00
55289;BME280;41154;45.394;5.734;2023-01-28T06:18:36;97101.00;;;-0.73;100.00
55289;BME280;41154;45.394;5.734;2023-01-28T06:21:02;97097.13;;;-0.62;100.00
55289;BME280;41154;45.394;5.734;2023-01-28T06:23:29;97103.88;;;-0.59;100.00
55289;BME280;41154;45.394;5.734;2023-01-28T06:25:55;97109.31;;;-0.61;100.00
55289;BME280;41154;45.394;5.734;2023-01-28T06:28:22;97106.88;;;-0.62;100.00
55289;BME280;41154;45.394;5.734;2023-01-28T06:30:50;97103.28;;;-0.69;100.00
55289;BME280;41154;45.394;5.734;2023-01-28T06:33:16;97094.56;;;-0.70;100.00
55289;BME280;41154;45.394;5.734;2023-01-28T06:35:43;97100.06;;;-0.80;100.00
55289;BME280;41154;45.394;5.734;2023-01-28T06:38:09;97102.13;;;-0.67;100.00
55289;BME280;41154;45.394;5.734;2023-01-28T06:40:35;97098.59;;;-0.59;100.00
55289;BME280;41154;45.394;5.734;2023-01-28T06:43:02;97107.50;;;-0.60;100.00
55289;BME280;41154;45.394;5.734;2023-01-28T06:45:27;97103.22;;;-0.61;100.00
55289;BME280;41154;45.394;5.734;2023-01-28T06:47:53;97107.00;;;-1.10;100.00
55289;BME280;41154;45.394;5.734;2023-01-28T06:50:19;97107.25;;;-0.74;100.00
55289;BME280;41154;45.394;5.734;2023-01-28T06:52:44;97114.63;;;-0.69;100.00
55289;BME280;41154;45.394;5.734;2023-01-28T06:55:10;97103.56;;;-0.64;100.00
55289;BME280;41154;45.394;5.734;2023-01-28T06:57:37;97111.66;;;-0.66;100.00
55289;BME280;41154;45.394;5.734;2023-01-28T07:00:05;97109.84;;;-0.65;100.00
55289;BME280;41154;45.394;5.734;2023-01-28T07:02:32;97114.88;;;-0.79;100.00
55289;BME280;41154;45.394;5.734;2023-01-28T07:04:58;97112.66;;;-0.67;100.00
55289;BME280;41154;45.394;5.734;2023-01-28T07:07:24;97113.91;;;-0.86;100.00
55289;BME280;41154;45.394;5.734;2023-01-28T07:09:49;97120.78;;;-0.77;100.00
55289;BME280;41154;45.394;5.734;2023-01-28T07:12:15;97121.72;;;-0.69;100.00
55289;BME280;41154;45.394;5.734;2023-01-28T07:14:41;97123.66;;;-0.63;100.00
55289;BME280;41154;45.394;5.734;2023-01-28T07:17:07;97116.16;;;-0.75;100.00
55289;BME280;41154;45.394;5.734;2023-01-28T07:19:32;97119.97;;;-0.77;100.00
55289;BME280;41154;45.394;5.734;2023-01-28T07:21:58;97122.00;;;-0.64;100.00
55289;BME280;41154;45.394;5.734;2023-01-28T07:24:25;97124.97;;;-0.59;100.00
55289;BME280;41154;45.394;5.734;2023-01-28T07:26:51;97139.13;;;-0.60;100.00
55289;BME280;41154;45.394;5.734;2023-01-28T07:29:17;97127.22;;;-0.79;100.00
55289;BME280;41154;45.394;5.734;2023-01-28T07:31:45;97134.06;;;-0.93;100.00
55289;BME280;41154;45.394;5.734;2023-01-28T07:34:10;97130.25;;;-0.91;100.00
55289;BME280;41154;45.394;5.734;2023-01-28T07:36:36;97134.19;;;-0.63;100.00
55289;BME280;41154;45.394;5.734;2023-01-28T07:39:02;97130.78;;;-0.72;100.00
55289;BME280;41154;45.394;5.734;2023-01-28T07:41:27;97129.03;;;-0.80;100.00
55289;BME280;41154;45.394;5.734;2023-01-28T07:43:56;97145.13;;;-0.98;100.00
55289;BME280;41154;45.394;5.734;2023-01-28T07:46:21;97148.47;;;-0.81;100.00
55289;BME280;41154;45.394;5.734;2023-01-28T07:48:47;97148.88;;;-0.69;100.00
55289;BME280;41154;45.394;5.734;2023-01-28T07:51:12;97148.56;;;-0.97;100.00
55289;BME280;41154;45.394;5.734;2023-01-28T07:53:39;97163.25;;;-0.80;100.00
55289;BME280;41154;45.394;5.734;2023-01-28T07:56:05;97166.38;;;-0.76;100.00
55289;BME280;41154;45.394;5.734;2023-01-28T07:58:31;97164.81;;;-0.94;100.00
55289;BME280;41154;45.394;5.734;2023-01-28T08:00:59;97174.94;;;-0.74;100.00
55289;BME280;41154;45.394;5.734;2023-01-28T08:03:26;97158.88;;;-0.64;100.00
55289;BME280;41154;45.394;5.734;2023-01-28T08:05:54;97167.91;;;-0.59;100.00
55289;BME280;41154;45.394;5.734;2023-01-28T08:08:23;97176.97;;;-0.61;100.00
55289;BME280;41154;45.394;5.734;2023-01-28T08:10:49;97180.63;;;-0.62;100.00
55289;BME280;41154;45.394;5.734;2023-01-28T08:13:16;97181.97;;;-0.66;100.00
55289;BME280;41154;45.394;5.734;2023-01-28T08:15:43;97182.72;;;-0.81;100.00
55289;BME280;41154;45.394;5.734;2023-01-28T08:18:10;97181.94;;;-0.89;100.00
55289;BME280;41154;45.394;5.734;2023-01-28T08:20:40;97190.25;;;-0.78;100.00
55289;BME280;41154;45.394;5.734;2023-01-28T08:23:15;97191.88;;;-0.68;100.00
55289;BME280;41154;45.394;5.734;2023-01-28T08:25:41;97189.91;;;-0.75;100.00
55289;BME280;41154;45.394;5.734;2023-01-28T08:28:08;97202.91;;;-0.73;100.00
55289;BME280;41154;45.394;5.734;2023-01-28T08:30:35;97203.81;;;-0.89;100.00
55289;BME280;41154;45.394;5.734;2023-01-28T08:33:02;97194.56;;;-0.85;100.00
55289;BME280;41154;45.394;5.734;2023-01-28T08:35:28;97199.84;;;-0.85;100.00
55289;BME280;41154;45.394;5.734;2023-01-28T08:37:58;97198.94;;;-0.69;100.00
55289;BME280;41154;45.394;5.734;2023-01-28T08:40:24;97212.94;;;-0.68;100.00
55289;BME280;41154;45.394;5.734;2023-01-28T08:42:51;97218.56;;;-0.80;100.00
55289;BME280;41154;45.394;5.734;2023-01-28T08:45:18;97217.41;;;-1.09;100.00
55289;BME280;41154;45.394;5.734;2023-01-28T08:48:00;97220.66;;;-1.06;100.00
55289;BME280;41154;45.394;5.734;2023-01-28T08:50:28;97222.72;;;-0.85;100.00
55289;BME280;41154;45.394;5.734;2023-01-28T08:52:59;97217.88;;;-0.74;100.00
55289;BME280;41154;45.394;5.734;2023-01-28T08:55:26;97232.47;;;-0.63;100.00
55289;BME280;41154;45.394;5.734;2023-01-28T08:57:52;97235.28;;;-0.64;100.00
55289;BME280;41154;45.394;5.734;2023-01-28T09:00:18;97243.25;;;-0.73;100.00
55289;BME280;41154;45.394;5.734;2023-01-28T09:02:44;97229.50;;;-0.91;100.00
55289;BME280;41154;45.394;5.734;2023-01-28T09:05:10;97234.47;;;-1.04;100.00
55289;BME280;41154;45.394;5.734;2023-01-28T09:07:37;97233.59;;;-0.88;100.00
55289;BME280;41154;45.394;5.734;2023-01-28T09:10:04;97235.28;;;-0.96;100.00
55289;BME280;41154;45.394;5.734;2023-01-28T09:12:31;97239.91;;;-0.98;100.00
55289;BME280;41154;45.394;5.734;2023-01-28T09:14:57;97244.09;;;-0.80;100.00
55289;BME280;41154;45.394;5.734;2023-01-28T09:17:23;97256.34;;;-0.64;100.00
55289;BME280;41154;45.394;5.734;2023-01-28T09:19:49;97259.47;;;-1.00;100.00
55289;BME280;41154;45.394;5.734;2023-01-28T09:22:14;97260.31;;;-1.08;100.00
55289;BME280;41154;45.394;5.734;2023-01-28T09:24:40;97257.31;;;-0.97;100.00
55289;BME280;41154;45.394;5.734;2023-01-28T09:27:06;97270.84;;;-1.08;100.00
55289;BME280;41154;45.394;5.734;2023-01-28T09:29:35;97275.19;;;-0.76;100.00
55289;BME280;41154;45.394;5.734;2023-01-28T09:32:01;97268.31;;;-0.85;100.00
55289;BME280;41154;45.394;5.734;2023-01-28T09:34:27;97282.16;;;-0.91;100.00
55289;BME280;41154;45.394;5.734;2023-01-28T09:36:53;97280.00;;;-0.87;100.00
55289;BME280;41154;45.394;5.734;2023-01-28T09:39:19;97283.22;;;-0.69;100.00
55289;BME280;41154;45.394;5.734;2023-01-28T09:42:15;97294.59;;;-0.77;100.00
55289;BME280;41154;45.394;5.734;2023-01-28T09:44:54;97290.69;;;-0.81;100.00
55289;BME280;41154;45.394;5.734;2023-01-28T09:47:34;97293.78;;;-0.77;100.00
55289;BME280;41154;45.394;5.734;2023-01-28T09:50:07;97291.41;;;-0.56;100.00
55289;BME280;41154;45.394;5.734;2023-01-28T09:52:36;97301.94;;;-0.56;100.00
55289;BME280;41154;45.394;5.734;2023-01-28T09:55:28;97302.06;;;-0.49;100.00
55289;BME280;41154;45.394;5.734;2023-01-28T09:57:54;97299.13;;;-0.54;100.00
55289;BME280;41154;45.394;5.734;2023-01-28T10:00:31;97308.47;;;-0.83;100.00
55289;BME280;41154;45.394;5.734;2023-01-28T10:06:07;97312.88;;;-0.75;100.00
55289;BME280;41154;45.394;5.734;2023-01-28T10:16:53;97312.41;;;-0.79;100.00
55289;BME280;41154;45.394;5.734;2023-01-28T10:19:35;97312.88;;;-0.67;100.00
55289;BME280;41154;45.394;5.734;2023-01-28T10:22:05;97319.94;;;-0.67;100.00
55289;BME280;41154;45.394;5.734;2023-01-28T10:24:35;97326.22;;;-0.68;100.00
55289;BME280;41154;45.394;5.734;2023-01-28T10:27:02;97321.09;;;-0.70;100.00
55289;BME280;41154;45.394;5.734;2023-01-28T10:29:32;97313.88;;;-0.76;100.00
55289;BME280;41154;45.394;5.734;2023-01-28T10:34:38;97316.94;;;-0.64;100.00
55289;BME280;41154;45.394;5.734;2023-01-28T10:37:03;97311.84;;;-0.66;100.00
55289;BME280;41154;45.394;5.734;2023-01-28T10:39:29;97309.69;;;-0.54;100.00
55289;BME280;41154;45.394;5.734;2023-01-28T10:41:55;97311.19;;;-0.28;100.00
55289;BME280;41154;45.394;5.734;2023-01-28T10:47:01;97323.50;;;-0.52;100.00
55289;BME280;41154;45.394;5.734;2023-01-28T10:49:30;97325.44;;;-0.46;100.00
55289;BME280;41154;45.394;5.734;2023-01-28T10:51:56;97312.22;;;-0.38;100.00
55289;BME280;41154;45.394;5.734;2023-01-28T10:54:25;97317.69;;;-0.08;100.00
55289;BME280;41154;45.394;5.734;2023-01-28T10:56:59;97319.41;;;-0.23;100.00
55289;BME280;41154;45.394;5.734;2023-01-28T10:59:30;97316.66;;;-0.07;100.00
55289;BME280;41154;45.394;5.734;2023-01-28T11:02:00;97318.38;;;-0.14;100.00
55289;BME280;41154;45.394;5.734;2023-01-28T11:04:29;97320.50;;;-0.49;100.00
55289;BME280;41154;45.394;5.734;2023-01-28T11:07:00;97316.06;;;-0.48;100.00
55289;BME280;41154;45.394;5.734;2023-01-28T11:09:29;97322.75;;;-0.38;100.00
55289;BME280;41154;45.394;5.734;2023-01-28T11:11:57;97319.94;;;-0.67;100.00
55289;BME280;41154;45.394;5.734;2023-01-28T11:14:25;97320.72;;;-0.59;100.00
55289;BME280;41154;45.394;5.734;2023-01-28T11:16:53;97322.44;;;-0.11;100.00
55289;BME280;41154;45.394;5.734;2023-01-28T11:19:25;97320.66;;;-0.11;100.00
55289;BME280;41154;45.394;5.734;2023-01-28T11:21:54;97319.53;;;-0.16;100.00
55289;BME280;41154;45.394;5.734;2023-01-28T11:24:25;97328.56;;;0.12;100.00
55289;BME280;41154;45.394;5.734;2023-01-28T11:26:53;97316.88;;;-0.16;100.00
55289;BME280;41154;45.394;5.734;2023-01-28T11:29:30;97313.41;;;-0.48;100.00
55289;BME280;41154;45.394;5.734;2023-01-28T11:31:56;97309.38;;;-0.59;100.00
55289;BME280;41154;45.394;5.734;2023-01-28T11:34:28;97313.19;;;-0.30;100.00
55289;BME280;41154;45.394;5.734;2023-01-28T11:37:02;97325.09;;;-0.43;100.00
55289;BME280;41154;45.394;5.734;2023-01-28T11:39:29;97311.22;;;-0.37;100.00
55289;BME280;41154;45.394;5.734;2023-01-28T11:42:21;97314.34;;;-0.73;100.00
55289;BME280;41154;45.394;5.734;2023-01-28T11:44:47;97313.25;;;-0.47;100.00
55289;BME280;41154;45.394;5.734;2023-01-28T11:50:22;97302.97;;;-0.33;100.00
55289;BME280;41154;45.394;5.734;2023-01-28T11:53:24;97315.94;;;-0.55;100.00
55289;BME280;41154;45.394;5.734;2023-01-28T11:56:23;97312.41;;;-0.08;100.00
55289;BME280;41154;45.394;5.734;2023-01-28T11:59:16;97315.06;;;-0.16;100.00
55289;BME280;41154;45.394;5.734;2023-01-28T12:05:05;97319.75;;;-0.66;100.00
55289;BME280;41154;45.394;5.734;2023-01-28T12:13:28;97312.56;;;-0.80;100.00
55289;BME280;41154;45.394;5.734;2023-01-28T12:16:33;97312.31;;;-0.54;100.00
55289;BME280;41154;45.394;5.734;2023-01-28T12:27:51;97312.44;;;-0.16;100.00
55289;BME280;41154;45.394;5.734;2023-01-28T12:30:48;97314.03;;;-0.07;100.00
55289;BME280;41154;45.394;5.734;2023-01-28T12:36:05;97321.78;;;-0.37;100.00
55289;BME280;41154;45.394;5.734;2023-01-28T12:38:43;97309.38;;;-0.59;100.00
55289;BME280;41154;45.394;5.734;2023-01-28T12:41:15;97298.38;;;-0.71;100.00
55289;BME280;41154;45.394;5.734;2023-01-28T12:43:58;97301.31;;;-0.66;100.00
55289;BME280;41154;45.394;5.734;2023-01-28T12:51:39;97302.16;;;-0.65;100.00
55289;BME280;41154;45.394;5.734;2023-01-28T12:54:17;97307.38;;;-0.57;100.00
55289;BME280;41154;45.394;5.734;2023-01-28T12:56:51;97300.50;;;-0.66;100.00
55289;BME280;41154;45.394;5.734;2023-01-28T12:59:28;97303.59;;;-0.63;100.00
55289;BME280;41154;45.394;5.734;2023-01-28T13:05:14;97298.09;;;-0.76;100.00
55289;BME280;41154;45.394;5.734;2023-01-28T13:07:47;97301.94;;;-0.56;100.00
55289;BME280;41154;45.394;5.734;2023-01-28T13:10:35;97312.59;;;-0.49;100.00
55289;BME280;41154;45.394;5.734;2023-01-28T13:13:02;97304.22;;;-0.52;100.00
55289;BME280;41154;45.394;5.734;2023-01-28T13:15:29;97302.38;;;-0.44;100.00
55289;BME280;41154;45.394;5.734;2023-01-28T13:20:36;97303.78;;;-0.02;100.00
55289;BME280;41154;45.394;5.734;2023-01-28T13:23:05;97299.72;;;0.11;100.00
55289;BME280;41154;45.394;5.734;2023-01-28T13:25:34;97305.34;;;-0.15;100.00
55289;BME280;41154;45.394;5.734;2023-01-28T13:28:04;97307.16;;;-0.16;100.00
55289;BME280;41154;45.394;5.734;2023-01-28T13:30:47;97307.59;;;0.19;100.00
55289;BME280;41154;45.394;5.734;2023-01-28T13:33:31;97313.63;;;-0.27;100.00
55289;BME280;41154;45.394;5.734;2023-01-28T13:36:15;97308.66;;;-0.45;100.00
55289;BME280;41154;45.394;5.734;2023-01-28T13:38:45;97322.84;;;-0.54;100.00
55289;BME280;41154;45.394;5.734;2023-01-28T13:41:11;97322.22;;;-0.25;100.00
55289;BME280;41154;45.394;5.734;2023-01-28T13:43:39;97327.56;;;0.13;100.00
55289;BME280;41154;45.394;5.734;2023-01-28T13:46:09;97330.16;;;-0.02;100.00
55289;BME280;41154;45.394;5.734;2023-01-28T13:48:55;97330.81;;;0.24;100.00
55289;BME280;41154;45.394;5.734;2023-01-28T13:54:06;97335.72;;;0.04;100.00
55289;BME280;41154;45.394;5.734;2023-01-28T13:56:41;97340.28;;;-0.13;100.00
55289;BME280;41154;45.394;5.734;2023-01-28T14:18:10;97365.03;;;-0.23;100.00
55289;BME280;41154;45.394;5.734;2023-01-28T14:20:43;97372.78;;;0.33;100.00
55289;BME280;41154;45.394;5.734;2023-01-28T14:23:17;97373.41;;;0.35;100.00
55289;BME280;41154;45.394;5.734;2023-01-28T14:28:33;97368.41;;;-0.06;100.00
55289;BME280;41154;45.394;5.734;2023-01-28T14:31:15;97378.28;;;0.01;100.00
55289;BME280;41154;45.394;5.734;2023-01-28T14:33:42;97378.03;;;-0.21;100.00
55289;BME280;41154;45.394;5.734;2023-01-28T14:36:10;97387.28;;;-0.25;100.00
55289;BME280;41154;45.394;5.734;2023-01-28T14:38:39;97387.91;;;-0.15;100.00
55289;BME280;41154;45.394;5.734;2023-01-28T14:41:06;97389.78;;;-0.32;100.00